sensor_id;sensor_type;location;lat;lon;timestamp;pressure;altitude;pressure_sealevel;temperature;humidity
31092;BME280;67728;53.122;12.776;2023-07-16T00:01:29;99888.72;;;20.72;84.95
31092;BME280;67728;53.122;12.776;2023-07-16T00:02:59;99891.69;;;20.68;85.29
31092;BME280;67728;53.122;12.776;2023-07-16T00:04:31;99890.94;;;20.66;85.39
31092;BME280;67728;53.122;12.776;2023-07-16T00:06:03;99894.63;;;20.76;84.96
31092;BME280;67728;53.122;12.776;2023-07-16T00:07:35;99888.69;;;20.85;84.73
31092;BME280;67728;53.122;12.776;2023-07-16T00:09:07;99891.75;;;20.92;84.70
31092;BME280;67728;53.122;12.776;2023-07-16T00:10:37;99895.84;;;20.96;84.71
31092;BME280;67728;53.122;12.776;2023-07-16T00:12:09;99893.09;;;20.97;84.50
31092;BME280;67728;53.122;12.776;2023-07-16T00:13:40;99905.44;;;20.97;84.75
31092;BME280;67728;53.122;12.776;2023-07-16T00:15:16;99893.41;;;20.93;84.46
31092;BME280;67728;53.122;12.776;2023-07-16T00:16:48;99895.84;;;20.96;84.54
31092;BME280;67728;53.122;12.776;2023-07-16T00:18:18;99893.75;;;20.88;84.74
31092;BME280;67728;53.122;12.776;2023-07-16T00:19:50;99879.25;;;20.70;85.02
31092;BME280;67728;53.122;12.776;2023-07-16T00:21:20;99881.75;;;20.71;84.44
31092;BME280;67728;53.122;12.776;2023-07-16T00:22:54;99880.59;;;20.75;84.40
31092;BME280;67728;53.122;12.776;2023-07-16T00:24:24;99888.91;;;20.82;84.73
31092;BME280;67728;53.122;12.776;2023-07-16T00:25:56;99897.78;;;20.81;85.45
31092;BME280;67728;53.122;12.776;2023-07-16T00:27:27;99896.50;;;20.74;85.47
31092;BME280;67728;53.122;12.776;2023-07-16T00:28:58;99898.94;;;20.77;85.44
31092;BME280;67728;53.122;12.776;2023-07-16T00:30:29;99899.78;;;20.77;85.64
31092;BME280;67728;53.122;12.776;2023-07-16T00:32:01;99892.81;;;20.76;86.14
31092;BME280;67728;53.122;12.776;2023-07-16T00:33:31;99901.69;;;20.75;86.04
31092;BME280;67728;53.122;12.776;2023-07-16T00:35:04;99893.91;;;20.61;85.82
31092;BME280;67728;53.122;12.776;2023-07-16T00:36:35;99884.63;;;20.56;86.15
31092;BME280;67728;53.122;12.776;2023-07-16T00:38:08;99875.03;;;20.55;85.53
31092;BME280;67728;53.122;12.776;2023-07-16T00:39:38;99882.19;;;20.53;85.23
31092;BME280;67728;53.122;12.776;2023-07-16T00:41:10;99883.25;;;20.50;85.97
31092;BME280;67728;53.122;12.776;2023-07-16T00:42:40;99887.25;;;20.56;85.91
31092;BME280;67728;53.122;12.776;2023-07-16T00:44:12;99895.03;;;20.57;85.76
31092;BME280;67728;53.122;12.776;2023-07-16T00:45:45;99901.94;;;20.60;86.02
31092;BME280;67728;53.122;12.776;2023-07-16T00:47:17;99901.94;;;20.60;85.51
31092;BME280;67728;53.122;12.776;2023-07-16T00:48:47;99897.81;;;20.56;85.73
31092;BME280;67728;53.122;12.776;2023-07-16T00:50:19;99901.63;;;20.52;86.47
31092;BME280;67728;53.122;12.776;2023-07-16T00:51:51;99918.44;;;20.49;86.11
31092;BME280;67728;53.122;12.776;2023-07-16T00:53:25;99926.78;;;20.43;86.24
31092;BME280;67728;53.122;12.776;2023-07-16T00:54:56;99935.22;;;20.36;86.09
31092;BME280;67728;53.122;12.776;2023-07-16T00:56:27;99944.91;;;20.35;84.28
31092;BME280;67728;53.122;12.776;2023-07-16T00:58:01;99947.22;;;20.40;83.71
31092;BME280;67728;53.122;12.776;2023-07-16T00:59:35;99959.25;;;20.44;83.54
31092;BME280;67728;53.122;12.776;2023-07-16T01:01:07;99972.84;;;20.50;83.33
31092;BME280;67728;53.122;12.776;2023-07-16T01:02:37;99973.69;;;20.51;82.76
31092;BME280;67728;53.122;12.776;2023-07-16T01:04:09;99985.16;;;20.50;82.66
31092;BME280;67728;53.122;12.776;2023-07-16T01:05:45;99990.34;;;20.51;82.77
31092;BME280;67728;53.122;12.776;2023-07-16T01:07:21;100000.38;;;20.59;81.31
31092;BME280;67728;53.122;12.776;2023-07-16T01:09:00;100019.34;;;20.76;80.25
31092;BME280;67728;53.122;12.776;2023-07-16T01:10:33;100036.97;;;20.88;79.53
31092;BME280;67728;53.122;12.776;2023-07-16T01:12:05;100048.97;;;20.93;80.28
31092;BME280;67728;53.122;12.776;2023-07-16T01:13:36;100057.31;;;20.99;79.92
31092;BME280;67728;53.122;12.776;2023-07-16T01:15:08;100059.63;;;21.04;79.93
31092;BME280;67728;53.122;12.776;2023-07-16T01:16:41;100056.47;;;20.99;79.87
31092;BME280;67728;53.122;12.776;2023-07-16T01:18:12;100041.38;;;21.01;79.62
31092;BME280;67728;53.122;12.776;2023-07-16T01:19:43;100046.78;;;20.99;79.88
31092;BME280;67728;53.122;12.776;2023-07-16T01:21:14;100051.72;;;21.04;80.33
31092;BME280;67728;53.122;12.776;2023-07-16T01:23:04;100057.97;;;21.03;80.21
31092;BME280;67728;53.122;12.776;2023-07-16T01:25:12;100055.47;;;21.14;79.69
31092;BME280;67728;53.122;12.776;2023-07-16T01:27:04;100046.25;;;21.32;78.78
31092;BME280;67728;53.122;12.776;2023-07-16T01:30:32;100037.78;;;21.39;78.57
31092;BME280;67728;53.122;12.776;2023-07-16T01:32:05;100038.53;;;21.41;78.67
31092;BME280;67728;53.122;12.776;2023-07-16T01:33:38;100051.50;;;21.44;78.91
31092;BME280;67728;53.122;12.776;2023-07-16T01:35:13;100047.41;;;21.40;79.38
31092;BME280;67728;53.122;12.776;2023-07-16T01:36:45;100050.34;;;21.36;79.67
31092;BME280;67728;53.122;12.776;2023-07-16T01:38:17;100051.31;;;21.35;79.73
31092;BME280;67728;53.122;12.776;2023-07-16T01:39:51;100061.25;;;21.31;80.26
31092;BME280;67728;53.122;12.776;2023-07-16T01:41:22;100068.31;;;21.31;80.33
31092;BME280;67728;53.122;12.776;2023-07-16T01:42:55;100069.38;;;21.28;81.02
31092;BME280;67728;53.122;12.776;2023-07-16T01:44:26;100061.66;;;21.25;81.36
31092;BME280;67728;53.122;12.776;2023-07-16T01:45:58;100048.47;;;21.25;81.87
31092;BME280;67728;53.122;12.776;2023-07-16T01:47:40;100059.47;;;21.19;82.40
31092;BME280;67728;53.122;12.776;2023-07-16T01:49:16;100058.53;;;21.08;84.31
31092;BME280;67728;53.122;12.776;2023-07-16T01:50:47;100049.63;;;20.96;84.96
31092;BME280;67728;53.122;12.776;2023-07-16T01:52:18;100047.59;;;20.87;86.31
31092;BME280;67728;53.122;12.776;2023-07-16T01:53:49;100054.03;;;20.83;86.85
31092;BME280;67728;53.122;12.776;2023-07-16T01:55:20;100058.16;;;20.74;87.13
31092;BME280;67728;53.122;12.776;2023-07-16T01:56:52;100062.25;;;20.66;88.66
31092;BME280;67728;53.122;12.776;2023-07-16T01:58:22;100067.28;;;20.56;89.12
31092;BME280;67728;53.122;12.776;2023-07-16T01:59:54;100072.88;;;20.52;89.87
31092;BME280;67728;53.122;12.776;2023-07-16T02:01:26;100081.72;;;20.51;89.74
31092;BME280;67728;53.122;12.776;2023-07-16T02:02:57;100085.59;;;20.45;90.98
31092;BME280;67728;53.122;12.776;2023-07-16T02:04:28;100086.00;;;20.39;90.48
31092;BME280;67728;53.122;12.776;2023-07-16T02:06:00;100087.91;;;20.37;91.30
31092;BME280;67728;53.122;12.776;2023-07-16T02:07:30;100094.41;;;20.32;91.87
31092;BME280;67728;53.122;12.776;2023-07-16T02:09:03;100095.81;;;20.23;92.24
31092;BME280;67728;53.122;12.776;2023-07-16T02:10:34;100096.88;;;20.20;92.81
31092;BME280;67728;53.122;12.776;2023-07-16T02:12:05;100096.22;;;20.17;92.73
31092;BME280;67728;53.122;12.776;2023-07-16T02:13:37;100090.94;;;20.17;93.11
31092;BME280;67728;53.122;12.776;2023-07-16T02:15:08;100097.16;;;20.16;93.37
31092;BME280;67728;53.122;12.776;2023-07-16T02:16:42;100097.38;;;20.13;93.74
31092;BME280;67728;53.122;12.776;2023-07-16T02:18:12;100089.66;;;20.10;93.60
31092;BME280;67728;53.122;12.776;2023-07-16T02:19:44;100098.22;;;20.13;94.18
31092;BME280;67728;53.122;12.776;2023-07-16T02:21:14;100110.72;;;20.10;94.09
31092;BME280;67728;53.122;12.776;2023-07-16T02:22:46;100111.66;;;20.09;93.95
31092;BME280;67728;53.122;12.776;2023-07-16T02:24:17;100112.63;;;20.08;94.38
31092;BME280;67728;53.122;12.776;2023-07-16T02:25:48;100113.56;;;20.07;94.35
31092;BME280;67728;53.122;12.776;2023-07-16T02:27:19;100115.44;;;20.05;94.48
31092;BME280;67728;53.122;12.776;2023-07-16T02:28:50;100117.88;;;20.08;94.35
31092;BME280;67728;53.122;12.776;2023-07-16T02:30:21;100125.06;;;20.06;93.91
31092;BME280;67728;53.122;12.776;2023-07-16T02:31:54;100129.53;;;20.04;94.00
31092;BME280;67728;53.122;12.776;2023-07-16T02:33:26;100135.34;;;20.09;93.16
31092;BME280;67728;53.122;12.776;2023-07-16T02:34:56;100138.09;;;20.07;94.15
31092;BME280;67728;53.122;12.776;2023-07-16T02:36:28;100141.47;;;20.09;93.70
31092;BME280;67728;53.122;12.776;2023-07-16T02:37:58;100144.41;;;20.05;94.33
31092;BME280;67728;53.122;12.776;2023-07-16T02:39:30;100143.06;;;20.12;93.93
31092;BME280;67728;53.122;12.776;2023-07-16T02:41:02;100145.06;;;20.08;93.99
31092;BME280;67728;53.122;12.776;2023-07-16T02:42:33;100133.75;;;20.06;93.98
31092;BME280;67728;53.122;12.776;2023-07-16T02:44:05;100135.34;;;20.09;94.78
31092;BME280;67728;53.122;12.776;2023-07-16T02:45:37;100123.22;;;20.06;94.74
31092;BME280;67728;53.122;12.776;2023-07-16T02:47:09;100130.59;;;20.01;94.99
31092;BME280;67728;53.122;12.776;2023-07-16T02:48:40;100129.00;;;19.99;95.55
31092;BME280;67728;53.122;12.776;2023-07-16T02:50:12;100124.41;;;19.88;96.29
31092;BME280;67728;53.122;12.776;2023-07-16T02:51:43;100116.50;;;19.88;96.51
31092;BME280;67728;53.122;12.776;2023-07-16T02:53:14;100111.13;;;19.90;96.16
31092;BME280;67728;53.122;12.776;2023-07-16T02:54:45;100086.06;;;19.84;97.23
31092;BME280;67728;53.122;12.776;2023-07-16T02:56:17;100095.34;;;19.90;96.76
31092;BME280;67728;53.122;12.776;2023-07-16T02:57:48;100097.34;;;19.86;96.82
31092;BME280;67728;53.122;12.776;2023-07-16T02:59:19;100105.97;;;19.88;96.97
31092;BME280;67728;53.122;12.776;2023-07-16T03:00:51;100098.38;;;19.84;97.23
31092;BME280;67728;53.122;12.776;2023-07-16T03:02:24;100098.78;;;19.78;97.26
31092;BME280;67728;53.122;12.776;2023-07-16T03:03:55;100102.13;;;19.80;97.24
31092;BME280;67728;53.122;12.776;2023-07-16T03:05:27;100123.19;;;19.80;97.54
31092;BME280;67728;53.122;12.776;2023-07-16T03:06:58;100106.78;;;19.76;97.57
31092;BME280;67728;53.122;12.776;2023-07-16T03:08:29;100113.63;;;19.79;97.71
31092;BME280;67728;53.122;12.776;2023-07-16T03:10:02;100118.22;;;19.75;97.62
31092;BME280;67728;53.122;12.776;2023-07-16T03:11:33;100104.31;;;19.73;97.63
31092;BME280;67728;53.122;12.776;2023-07-16T03:13:05;100112.84;;;19.77;98.32
31092;BME280;67728;53.122;12.776;2023-07-16T03:14:35;100118.13;;;19.77;97.98
31092;BME280;67728;53.122;12.776;2023-07-16T03:16:07;100103.19;;;19.77;97.81
31092;BME280;67728;53.122;12.776;2023-07-16T03:17:39;100095.19;;;19.79;97.76
31092;BME280;67728;53.122;12.776;2023-07-16T03:19:11;100097.06;;;19.77;97.79
31092;BME280;67728;53.122;12.776;2023-07-16T03:20:41;100080.91;;;19.68;97.99
31092;BME280;67728;53.122;12.776;2023-07-16T03:22:13;100055.75;;;19.50;99.09
31092;BME280;67728;53.122;12.776;2023-07-16T03:23:45;100051.25;;;19.52;99.00
31092;BME280;67728;53.122;12.776;2023-07-16T03:25:15;100049.56;;;19.51;98.91
31092;BME280;67728;53.122;12.776;2023-07-16T03:26:47;100056.50;;;19.52;99.99
31092;BME280;67728;53.122;12.776;2023-07-16T03:28:19;100085.72;;;19.62;99.70
31092;BME280;67728;53.122;12.776;2023-07-16T03:29:49;100109.50;;;19.60;99.62
31092;BME280;67728;53.122;12.776;2023-07-16T03:31:21;100123.69;;;19.58;99.16
31092;BME280;67728;53.122;12.776;2023-07-16T03:32:53;100106.97;;;19.59;99.08
31092;BME280;67728;53.122;12.776;2023-07-16T03:34:25;100080.66;;;19.45;99.23
31092;BME280;67728;53.122;12.776;2023-07-16T03:35:55;100096.56;;;19.43;100.00
31092;BME280;67728;53.122;12.776;2023-07-16T03:37:27;100110.16;;;19.50;100.00
31092;BME280;67728;53.122;12.776;2023-07-16T03:38:58;100107.53;;;19.50;100.00
31092;BME280;67728;53.122;12.776;2023-07-16T03:40:29;100108.00;;;19.56;99.81
31092;BME280;67728;53.122;12.776;2023-07-16T03:42:01;100100.97;;;19.57;99.65
31092;BME280;67728;53.122;12.776;2023-07-16T03:43:32;100109.69;;;19.57;99.90
31092;BME280;67728;53.122;12.776;2023-07-16T03:45:04;100133.09;;;19.62;99.49
31092;BME280;67728;53.122;12.776;2023-07-16T03:46:35;100143.88;;;19.57;99.61
31092;BME280;67728;53.122;12.776;2023-07-16T03:48:08;100149.34;;;19.54;99.46
31092;BME280;67728;53.122;12.776;2023-07-16T03:49:39;100157.25;;;19.54;99.23
31092;BME280;67728;53.122;12.776;2023-07-16T03:51:10;100159.03;;;19.54;99.19
31092;BME280;67728;53.122;12.776;2023-07-16T03:52:41;100165.03;;;19.56;99.79
31092;BME280;67728;53.122;12.776;2023-07-16T03:54:13;100176.31;;;19.58;99.49
31092;BME280;67728;53.122;12.776;2023-07-16T03:55:43;100169.38;;;19.57;99.36
31092;BME280;67728;53.122;12.776;2023-07-16T03:57:15;100172.94;;;19.56;99.95
31092;BME280;67728;53.122;12.776;2023-07-16T03:58:45;100168.53;;;19.56;99.51
31092;BME280;67728;53.122;12.776;2023-07-16T04:00:17;100156.00;;;19.60;99.94
31092;BME280;67728;53.122;12.776;2023-07-16T04:01:48;100150.97;;;19.57;100.00
31092;BME280;67728;53.122;12.776;2023-07-16T04:03:21;100138.84;;;19.54;100.00
31092;BME280;67728;53.122;12.776;2023-07-16T04:04:51;100123.59;;;19.45;100.00
31092;BME280;67728;53.122;12.776;2023-07-16T04:06:23;100130.28;;;19.51;100.00
31092;BME280;67728;53.122;12.776;2023-07-16T04:07:54;100138.72;;;19.56;100.00
31092;BME280;67728;53.122;12.776;2023-07-16T04:09:25;100150.00;;;19.58;99.92
31092;BME280;67728;53.122;12.776;2023-07-16T04:10:56;100148.09;;;19.60;99.88
31092;BME280;67728;53.122;12.776;2023-07-16T04:12:27;100150.75;;;19.60;99.85
31092;BME280;67728;53.122;12.776;2023-07-16T04:13:58;100143.44;;;19.65;100.00
31092;BME280;67728;53.122;12.776;2023-07-16T04:15:30;100127.72;;;19.63;100.00
31092;BME280;67728;53.122;12.776;2023-07-16T04:17:00;100117.00;;;19.52;100.00
31092;BME280;67728;53.122;12.776;2023-07-16T04:18:33;100103.69;;;19.55;100.00
31092;BME280;67728;53.122;12.776;2023-07-16T04:20:05;100067.50;;;19.45;100.00
31092;BME280;67728;53.122;12.776;2023-07-16T04:21:37;100050.31;;;19.53;99.64
31092;BME280;67728;53.122;12.776;2023-07-16T04:23:07;100069.41;;;19.57;99.54
31092;BME280;67728;53.122;12.776;2023-07-16T04:24:39;100095.47;;;19.60;100.00
31092;BME280;67728;53.122;12.776;2023-07-16T04:26:10;100120.69;;;19.64;100.00
31092;BME280;67728;53.122;12.776;2023-07-16T04:27:41;100138.81;;;19.68;100.00
31092;BME280;67728;53.122;12.776;2023-07-16T04:29:13;100145.78;;;19.69;100.00
31092;BME280;67728;53.122;12.776;2023-07-16T04:30:46;100161.56;;;19.69;99.68
31092;BME280;67728;53.122;12.776;2023-07-16T04:32:18;100165.91;;;19.71;99.67
31092;BME280;67728;53.122;12.776;2023-07-16T04:33:50;100178.94;;;19.72;99.60
31092;BME280;67728;53.122;12.776;2023-07-16T04:35:22;100200.75;;;19.74;99.79
31092;BME280;67728;53.122;12.776;2023-07-16T04:36:53;100203.47;;;19.73;99.63
31092;BME280;67728;53.122;12.776;2023-07-16T04:38:24;100202.75;;;19.71;100.00
31092;BME280;67728;53.122;12.776;2023-07-16T04:39:56;100215.91;;;19.71;100.00
31092;BME280;67728;53.122;12.776;2023-07-16T04:41:27;100205.25;;;19.72;100.00
31092;BME280;67728;53.122;12.776;2023-07-16T04:42:59;100202.75;;;19.71;100.00
31092;BME280;67728;53.122;12.776;2023-07-16T04:44:29;100200.38;;;19.66;100.00
31092;BME280;67728;53.122;12.776;2023-07-16T04:46:01;100200.28;;;19.67;100.00
31092;BME280;67728;53.122;12.776;2023-07-16T04:47:33;100196.50;;;19.72;100.00
31092;BME280;67728;53.122;12.776;2023-07-16T04:49:05;100207.03;;;19.72;100.00
31092;BME280;67728;53.122;12.776;2023-07-16T04:50:38;100220.19;;;19.72;99.94
31092;BME280;67728;53.122;12.776;2023-07-16T04:52:09;100214.09;;;19.71;99.86
31092;BME280;67728;53.122;12.776;2023-07-16T04:53:40;100213.25;;;19.71;99.79
31092;BME280;67728;53.122;12.776;2023-07-16T04:55:11;100190.31;;;19.58;100.00
31092;BME280;67728;53.122;12.776;2023-07-16T04:56:43;100187.69;;;19.58;100.00
31092;BME280;67728;53.122;12.776;2023-07-16T04:58:14;100186.34;;;19.65;99.95
31092;BME280;67728;53.122;12.776;2023-07-16T04:59:45;100203.66;;;19.69;100.00
31092;BME280;67728;53.122;12.776;2023-07-16T05:01:16;100225.47;;;19.72;100.00
31092;BME280;67728;53.122;12.776;2023-07-16T05:02:48;100219.53;;;19.68;99.59
31092;BME280;67728;53.122;12.776;2023-07-16T05:04:20;100211.44;;;19.71;98.76
31092;BME280;67728;53.122;12.776;2023-07-16T05:05:51;100225.94;;;19.78;98.54
31092;BME280;67728;53.122;12.776;2023-07-16T05:07:22;100232.81;;;19.81;98.41
31092;BME280;67728;53.122;12.776;2023-07-16T05:08:53;100253.69;;;19.84;98.33
31092;BME280;67728;53.122;12.776;2023-07-16T05:10:26;100268.53;;;19.85;98.51
31092;BME280;67728;53.122;12.776;2023-07-16T05:11:57;100278.41;;;19.81;98.96
31092;BME280;67728;53.122;12.776;2023-07-16T05:13:29;100260.16;;;19.78;98.14
31092;BME280;67728;53.122;12.776;2023-07-16T05:14:59;100268.69;;;19.82;98.83
31092;BME280;67728;53.122;12.776;2023-07-16T05:16:31;100275.66;;;19.83;98.85
31092;BME280;67728;53.122;12.776;2023-07-16T05:18:02;100280.88;;;19.84;98.91
31092;BME280;67728;53.122;12.776;2023-07-16T05:19:34;100281.22;;;19.78;99.14
31092;BME280;67728;53.122;12.776;2023-07-16T05:21:05;100264.56;;;19.78;98.33
31092;BME280;67728;53.122;12.776;2023-07-16T05:22:37;100257.63;;;19.77;98.87
31092;BME280;67728;53.122;12.776;2023-07-16T05:24:07;100254.06;;;19.78;99.17
31092;BME280;67728;53.122;12.776;2023-07-16T05:25:45;100239.38;;;19.74;99.70
31092;BME280;67728;53.122;12.776;2023-07-16T05:27:16;100247.56;;;19.69;99.35
31092;BME280;67728;53.122;12.776;2023-07-16T05:28:47;100253.66;;;19.69;99.58
31092;BME280;67728;53.122;12.776;2023-07-16T05:30:18;100265.03;;;19.70;99.13
31092;BME280;67728;53.122;12.776;2023-07-16T05:31:50;100268.72;;;19.67;99.40
31092;BME280;67728;53.122;12.776;2023-07-16T05:33:20;100277.53;;;19.66;99.05
31092;BME280;67728;53.122;12.776;2023-07-16T05:34:53;100275.09;;;19.63;99.11
31092;BME280;67728;53.122;12.776;2023-07-16T05:36:24;100283.06;;;19.62;98.95
31092;BME280;67728;53.122;12.776;2023-07-16T05:37:55;100290.88;;;19.63;98.31
31092;BME280;67728;53.122;12.776;2023-07-16T05:39:26;100296.13;;;19.63;97.59
31092;BME280;67728;53.122;12.776;2023-07-16T05:41:00;100304.41;;;19.72;97.60
31092;BME280;67728;53.122;12.776;2023-07-16T05:42:32;100308.56;;;19.76;97.98
31092;BME280;67728;53.122;12.776;2023-07-16T05:44:03;100308.97;;;19.84;97.91
31092;BME280;67728;53.122;12.776;2023-07-16T05:45:34;100313.28;;;19.85;97.74
31092;BME280;67728;53.122;12.776;2023-07-16T05:47:05;100317.59;;;19.86;97.42
31092;BME280;67728;53.122;12.776;2023-07-16T05:48:36;100310.38;;;19.89;97.16
31092;BME280;67728;53.122;12.776;2023-07-16T05:50:09;100309.53;;;19.89;96.73
31092;BME280;67728;53.122;12.776;2023-07-16T05:51:40;100311.50;;;19.85;96.11
31092;BME280;67728;53.122;12.776;2023-07-16T05:53:12;100300.97;;;19.85;95.51
31092;BME280;67728;53.122;12.776;2023-07-16T05:54:44;100300.78;;;19.88;95.93
31092;BME280;67728;53.122;12.776;2023-07-16T05:56:16;100304.16;;;19.90;95.91
31092;BME280;67728;53.122;12.776;2023-07-16T05:57:46;100299.72;;;19.77;95.21
31092;BME280;67728;53.122;12.776;2023-07-16T05:59:18;100308.00;;;19.71;94.74
31092;BME280;67728;53.122;12.776;2023-07-16T06:00:49;100309.50;;;19.75;94.67
31092;BME280;67728;53.122;12.776;2023-07-16T06:02:20;100317.72;;;19.84;94.37
31092;BME280;67728;53.122;12.776;2023-07-16T06:03:52;100322.50;;;19.92;93.70
31092;BME280;67728;53.122;12.776;2023-07-16T06:05:24;100320.44;;;19.97;92.36
31092;BME280;67728;53.122;12.776;2023-07-16T06:06:56;100312.94;;;20.05;92.05
31092;BME280;67728;53.122;12.776;2023-07-16T06:08:27;100318.56;;;20.13;91.45
31092;BME280;67728;53.122;12.776;2023-07-16T06:09:59;100310.91;;;20.24;90.69
31092;BME280;67728;53.122;12.776;2023-07-16T06:11:30;100315.38;;;20.22;88.73
31092;BME280;67728;53.122;12.776;2023-07-16T06:13:02;100312.19;;;20.31;88.08
31092;BME280;67728;53.122;12.776;2023-07-16T06:14:32;100320.78;;;20.35;89.00
31092;BME280;67728;53.122;12.776;2023-07-16T06:16:04;100311.66;;;20.40;88.04
31092;BME280;67728;53.122;12.776;2023-07-16T06:17:35;100317.66;;;20.42;87.47
31092;BME280;67728;53.122;12.776;2023-07-16T06:19:06;100314.66;;;20.48;87.91
31092;BME280;67728;53.122;12.776;2023-07-16T06:20:38;100321.81;;;20.46;87.39
31092;BME280;67728;53.122;12.776;2023-07-16T06:22:10;100317.75;;;20.41;88.74
31092;BME280;67728;53.122;12.776;2023-07-16T06:23:42;100319.72;;;20.37;89.29
31092;BME280;67728;53.122;12.776;2023-07-16T06:25:13;100326.31;;;20.44;90.07
31092;BME280;67728;53.122;12.776;2023-07-16T06:26:44;100333.94;;;20.49;89.78
31092;BME280;67728;53.122;12.776;2023-07-16T06:28:17;100330.47;;;20.48;90.25
31092;BME280;67728;53.122;12.776;2023-07-16T06:29:48;100331.03;;;20.39;90.00
31092;BME280;67728;53.122;12.776;2023-07-16T06:31:20;100332.91;;;20.51;90.19
31092;BME280;67728;53.122;12.776;2023-07-16T06:32:50;100335.25;;;20.56;89.69
31092;BME280;67728;53.122;12.776;2023-07-16T06:34:22;100328.28;;;20.55;89.79
31092;BME280;67728;53.122;12.776;2023-07-16T06:35:54;100326.03;;;20.35;89.57
31092;BME280;67728;53.122;12.776;2023-07-16T06:37:26;100324.81;;;20.26;88.29
31092;BME280;67728;53.122;12.776;2023-07-16T06:38:56;100327.34;;;20.42;89.28
31092;BME280;67728;53.122;12.776;2023-07-16T06:40:30;100326.50;;;20.41;87.40
31092;BME280;67728;53.122;12.776;2023-07-16T06:42:01;100322.06;;;20.42;86.82
31092;BME280;67728;53.122;12.776;2023-07-16T06:43:33;100308.22;;;20.52;88.20
31092;BME280;67728;53.122;12.776;2023-07-16T06:45:04;100315.09;;;20.55;86.99
31092;BME280;67728;53.122;12.776;2023-07-16T06:46:36;100317.81;;;20.67;86.98
31092;BME280;67728;53.122;12.776;2023-07-16T06:48:06;100320.53;;;20.66;87.64
31092;BME280;67728;53.122;12.776;2023-07-16T06:49:38;100312.75;;;20.64;87.17
31092;BME280;67728;53.122;12.776;2023-07-16T06:51:10;100313.97;;;20.59;87.23
31092;BME280;67728;53.122;12.776;2023-07-16T06:52:42;100312.19;;;20.45;88.14
31092;BME280;67728;53.122;12.776;2023-07-16T06:54:13;100319.84;;;20.36;84.59
31092;BME280;67728;53.122;12.776;2023-07-16T06:55:44;100325.38;;;20.45;86.18
31092;BME280;67728;53.122;12.776;2023-07-16T06:57:17;100329.31;;;20.52;84.62
31092;BME280;67728;53.122;12.776;2023-07-16T06:58:49;100330.63;;;20.59;82.44
31092;BME280;67728;53.122;12.776;2023-07-16T07:00:19;100326.09;;;20.75;82.95
31092;BME280;67728;53.122;12.776;2023-07-16T07:01:51;100327.84;;;20.89;81.65
31092;BME280;67728;53.122;12.776;2023-07-16T07:03:22;100337.41;;;21.04;81.74
31092;BME280;67728;53.122;12.776;2023-07-16T07:04:54;100342.50;;;21.07;79.94
31092;BME280;67728;53.122;12.776;2023-07-16T07:06:27;100339.84;;;21.21;81.57
31092;BME280;67728;53.122;12.776;2023-07-16T07:07:57;100333.25;;;21.14;78.76
31092;BME280;67728;53.122;12.776;2023-07-16T07:09:29;100338.63;;;21.39;77.97
31092;BME280;67728;53.122;12.776;2023-07-16T07:11:00;100339.94;;;21.59;78.24
31092;BME280;67728;53.122;12.776;2023-07-16T07:12:31;100340.66;;;21.88;79.14
31092;BME280;67728;53.122;12.776;2023-07-16T07:14:07;100333.78;;;21.98;74.21
31092;BME280;67728;53.122;12.776;2023-07-16T07:15:38;100337.69;;;22.18;75.51
31092;BME280;67728;53.122;12.776;2023-07-16T07:17:09;100336.97;;;22.41;75.01
31092;BME280;67728;53.122;12.776;2023-07-16T07:18:40;100336.06;;;22.53;72.84
31092;BME280;67728;53.122;12.776;2023-07-16T07:20:13;100348.06;;;22.21;76.33
31092;BME280;67728;53.122;12.776;2023-07-16T07:21:46;100340.97;;;22.21;76.07
31092;BME280;67728;53.122;12.776;2023-07-16T07:23:17;100351.00;;;22.03;71.92
31092;BME280;67728;53.122;12.776;2023-07-16T07:24:48;100353.34;;;22.21;72.89
31092;BME280;67728;53.122;12.776;2023-07-16T07:26:19;100347.38;;;22.55;70.17
31092;BME280;67728;53.122;12.776;2023-07-16T07:27:51;100355.44;;;22.66;70.29
31092;BME280;67728;53.122;12.776;2023-07-16T07:29:22;100343.47;;;22.60;68.33
31092;BME280;67728;53.122;12.776;2023-07-16T07:30:53;100349.28;;;22.66;72.07
31092;BME280;67728;53.122;12.776;2023-07-16T07:32:24;100353.75;;;22.65;69.52
31092;BME280;67728;53.122;12.776;2023-07-16T07:33:56;100360.19;;;22.48;72.18
31092;BME280;67728;53.122;12.776;2023-07-16T07:35:27;100357.44;;;22.75;74.89
31092;BME280;67728;53.122;12.776;2023-07-16T07:37:00;100357.91;;;22.93;68.51
31092;BME280;67728;53.122;12.776;2023-07-16T07:38:31;100365.91;;;23.04;67.66
31092;BME280;67728;53.122;12.776;2023-07-16T07:40:03;100364.69;;;23.20;67.72
31092;BME280;67728;53.122;12.776;2023-07-16T07:41:34;100358.72;;;23.30;65.20
31092;BME280;67728;53.122;12.776;2023-07-16T07:43:05;100359.31;;;23.33;65.18
31092;BME280;67728;53.122;12.776;2023-07-16T07:44:36;100362.19;;;23.43;63.59
31092;BME280;67728;53.122;12.776;2023-07-16T07:46:08;100357.47;;;22.99;63.70
31092;BME280;67728;53.122;12.776;2023-07-16T07:47:41;100364.81;;;22.83;63.45
31092;BME280;67728;53.122;12.776;2023-07-16T07:49:12;100363.09;;;22.94;64.44
31092;BME280;67728;53.122;12.776;2023-07-16T07:50:43;100361.69;;;23.38;62.83
31092;BME280;67728;53.122;12.776;2023-07-16T07:52:16;100362.19;;;23.43;65.96
31092;BME280;67728;53.122;12.776;2023-07-16T07:53:48;100364.75;;;23.90;62.93
31092;BME280;67728;53.122;12.776;2023-07-16T07:55:20;100362.63;;;24.06;63.07
31092;BME280;67728;53.122;12.776;2023-07-16T07:56:50;100364.63;;;24.37;62.35